Kilsyth, West Virginia
Current Conditions -  °F | °C
As of 8:51 PM on Saturday 22 Nov 2014 (Local Time) from KBKW Reporting Station
Overcast Overcast  
Wind Chill: 41°   Ceiling: 9000
Heat Index: 46°   Visibility: 10mi
Dew Point: 17°   Wind: 12mph
Humidity: 31%   Direction: 140°SE
Pressure: 30.21"   Gusts: NA
Location:  37.89°N, 81.18°W
Report Text: KBKW 230151Z AUTO 14010KT 10SM OVC090 08/M08 A3021 RMK AO2 SLP244 T00781083
Loading
Personal Weather Stations






























Interactive Weather Map New forecast layout! Learn more

10-Day Weather Forecast

Advertisements
Track Severe Weather on mobile